createdAt,value
2018-11-29T00:00:37.895Z,73.99
2018-11-29T00:03:07.723Z,73.98
2018-11-29T00:05:37.351Z,74.10
2018-11-29T00:08:06.886Z,73.96
2018-11-29T00:10:35.817Z,74.16
2018-11-29T00:13:05.077Z,74.30
2018-11-29T00:15:34.271Z,73.82
2018-11-29T00:18:03.258Z,73.87
2018-11-29T00:20:32.751Z,73.88
2018-11-29T00:23:01.586Z,73.43
2018-11-29T00:25:30.442Z,73.50
2018-11-29T00:27:59.253Z,73.62
2018-11-29T00:30:29.147Z,73.07
2018-11-29T00:32:57.964Z,73.49
2018-11-29T00:35:26.907Z,73.50
2018-11-29T00:37:55.835Z,73.36
2018-11-29T00:40:24.949Z,73.49
2018-11-29T00:42:54.388Z,73.55
2018-11-29T00:45:23.887Z,73.49
2018-11-29T00:47:53.062Z,74.05
2018-11-29T00:50:22.054Z,73.97
2018-11-29T00:52:51.215Z,73.63
2018-11-29T00:55:22.183Z,73.92
2018-11-29T00:57:51.449Z,74.07
2018-11-29T01:00:21.251Z,74.04
2018-11-29T01:02:50.269Z,74.24
2018-11-29T01:05:19.090Z,74.39
2018-11-29T01:07:48.009Z,74.05
2018-11-29T01:10:17.361Z,74.14
2018-11-29T01:12:46.563Z,74.23
2018-11-29T01:15:18.207Z,74.32
2018-11-29T01:17:48.065Z,74.39
2018-11-29T01:20:17.954Z,74.36
2018-11-29T01:22:46.784Z,74.18
2018-11-29T01:25:16.196Z,73.89
2018-11-29T01:27:46.133Z,73.88
2018-11-29T01:30:16.787Z,74.15
2018-11-29T01:32:45.672Z,73.89
2018-11-29T01:35:16.353Z,73.84
2018-11-29T01:37:45.136Z,73.95
2018-11-29T01:40:19.653Z,74.03
2018-11-29T01:42:50.624Z,73.95
2018-11-29T01:45:19.633Z,74.09
2018-11-29T01:47:48.381Z,74.04
2018-11-29T01:50:17.287Z,74.22
2018-11-29T01:52:46.250Z,73.79
2018-11-29T01:55:15.195Z,74.31
2018-11-29T01:57:44.161Z,74.27
2018-11-29T02:00:15.888Z,74.07
2018-11-29T02:02:47.724Z,73.89
2018-11-29T02:05:16.669Z,73.88
2018-11-29T02:07:45.482Z,73.67
2018-11-29T02:10:20.510Z,73.64
2018-11-29T02:12:49.315Z,73.46
2018-11-29T02:15:18.049Z,73.45
2018-11-29T02:17:46.832Z,73.63
2018-11-29T02:20:16.396Z,73.43
2018-11-29T02:22:45.174Z,73.52
2018-11-29T02:25:13.983Z,73.53
2018-11-29T02:27:42.815Z,73.69
2018-11-29T02:30:13.232Z,72.91
2018-11-29T02:32:42.077Z,73.36
2018-11-29T02:35:10.874Z,73.68
2018-11-29T02:37:39.746Z,73.52
2018-11-29T02:40:10.352Z,73.58
2018-11-29T02:42:39.246Z,73.56
2018-11-29T02:45:10.435Z,73.24
2018-11-29T02:47:39.261Z,73.50
2018-11-29T02:50:08.833Z,73.41
2018-11-29T02:52:37.698Z,72.80
2018-11-29T02:55:07.916Z,73.06
2018-11-29T02:57:36.814Z,72.83
2018-11-29T03:00:11.623Z,72.50
2018-11-29T03:02:40.462Z,72.18
2018-11-29T03:05:09.353Z,72.46
2018-11-29T03:07:38.392Z,72.30
2018-11-29T03:10:08.775Z,72.85
2018-11-29T03:12:37.563Z,72.36
2018-11-29T03:15:11.527Z,72.40
2018-11-29T03:17:41.259Z,72.56
2018-11-29T03:20:11.277Z,72.32
2018-11-29T03:22:40.062Z,72.56
2018-11-29T03:25:11.029Z,72.49
2018-11-29T03:27:39.967Z,72.65
2018-11-29T03:30:10.560Z,73.01
2018-11-29T03:32:39.362Z,72.59
2018-11-29T03:35:09.077Z,72.78
2018-11-29T03:37:37.883Z,72.59
2018-11-29T03:40:09.687Z,72.45
2018-11-29T03:42:38.460Z,72.53
2018-11-29T03:45:09.946Z,72.49
2018-11-29T03:47:38.890Z,72.39
2018-11-29T03:50:10.086Z,72.37
2018-11-29T03:52:38.890Z,72.43
2018-11-29T03:55:08.783Z,72.85
2018-11-29T03:57:37.968Z,72.57
2018-11-29T04:00:11.308Z,72.62
2018-11-29T04:02:40.066Z,72.53
2018-11-29T04:05:08.769Z,72.62
2018-11-29T04:07:37.553Z,72.43
2018-11-29T04:10:09.198Z,72.37
2018-11-29T04:12:38.121Z,72.22
2018-11-29T04:15:08.030Z,71.95
2018-11-29T04:17:40.705Z,71.74
2018-11-29T04:20:08.395Z,71.87
2018-11-29T04:22:37.376Z,71.75
2018-11-29T04:25:07.135Z,71.91
2018-11-29T04:27:36.281Z,72.09
2018-11-29T04:30:05.830Z,71.68
2018-11-29T04:32:34.747Z,71.53
2018-11-29T04:35:03.597Z,71.50
2018-11-29T04:37:32.359Z,71.43
2018-11-29T04:40:01.088Z,71.61
2018-11-29T04:42:30.114Z,71.45
2018-11-29T04:44:58.921Z,71.47
2018-11-29T04:47:27.658Z,70.90
2018-11-29T04:49:56.467Z,71.22
2018-11-29T04:52:25.193Z,70.84
2018-11-29T04:54:53.935Z,71.01
2018-11-29T04:57:22.730Z,70.98
2018-11-29T04:59:51.492Z,70.75
2018-11-29T05:02:21.094Z,70.90
2018-11-29T05:04:49.979Z,70.98
2018-11-29T05:07:18.773Z,70.72
2018-11-29T05:09:47.502Z,70.92
2018-11-29T05:12:16.347Z,70.71
2018-11-29T05:14:45.144Z,70.70
2018-11-29T05:17:13.926Z,70.69
2018-11-29T05:19:42.788Z,70.60
2018-11-29T05:22:11.565Z,70.40
2018-11-29T05:24:40.530Z,70.08
2018-11-29T05:27:13.443Z,70.31
2018-11-29T05:29:44.043Z,70.29
2018-11-29T05:32:12.958Z,69.99
2018-11-29T05:34:42.645Z,69.96
2018-11-29T05:37:11.726Z,69.99
2018-11-29T05:39:41.033Z,70.04
2018-11-29T05:42:10.398Z,69.95
2018-11-29T05:44:39.649Z,70.03
2018-11-29T05:47:09.518Z,69.89
2018-11-29T05:49:38.657Z,70.06
2018-11-29T05:52:07.474Z,70.14
2018-11-29T05:54:36.905Z,70.12
2018-11-29T05:57:05.904Z,70.52
2018-11-29T05:59:34.796Z,70.44
2018-11-29T06:02:03.572Z,70.05
2018-11-29T06:04:32.328Z,70.47
2018-11-29T06:07:01.181Z,69.94
2018-11-29T06:09:29.919Z,69.84
2018-11-29T06:11:58.855Z,69.70
2018-11-29T06:14:27.922Z,69.37
2018-11-29T06:16:57.226Z,69.35
2018-11-29T06:19:25.960Z,68.73
2018-11-29T06:21:54.811Z,69.37
2018-11-29T06:24:23.644Z,68.79
2018-11-29T06:26:52.428Z,68.67
2018-11-29T06:29:21.241Z,69.54
2018-11-29T06:31:50.028Z,69.45
2018-11-29T06:34:18.988Z,69.96
2018-11-29T06:36:47.845Z,70.11
2018-11-29T06:39:16.602Z,73.18
2018-11-29T06:41:45.688Z,73.32
2018-11-29T06:44:14.488Z,74.78
2018-11-29T06:46:43.304Z,75.90
2018-11-29T06:49:12.195Z,75.96
2018-11-29T06:51:43.136Z,75.91
2018-11-29T06:54:13.228Z,76.49
2018-11-29T06:56:42.735Z,75.68
2018-11-29T06:59:11.506Z,75.44
2018-11-29T07:01:41.985Z,75.52
2018-11-29T07:04:10.892Z,75.59
2018-11-29T07:06:40.215Z,75.08
2018-11-29T07:09:09.799Z,74.89
2018-11-29T07:11:42.497Z,75.12
2018-11-29T07:14:12.645Z,74.92
2018-11-29T07:16:41.496Z,74.38
2018-11-29T07:19:14.883Z,74.10
2018-11-29T07:21:49.774Z,73.68
2018-11-29T07:24:21.999Z,73.65
2018-11-29T07:26:51.458Z,73.12
2018-11-29T07:29:21.099Z,72.74
2018-11-29T07:31:50.133Z,72.67
2018-11-29T07:34:20.306Z,72.80
2018-11-29T07:36:52.101Z,72.91
2018-11-29T07:39:21.792Z,73.11
2018-11-29T07:41:50.826Z,72.69
2018-11-29T07:44:19.766Z,72.73
2018-11-29T07:46:49.195Z,71.88
2018-11-29T07:49:18.359Z,71.36
2018-11-29T07:51:47.297Z,71.98
2018-11-29T07:54:16.145Z,70.87
2018-11-29T07:56:45.067Z,70.89
2018-11-29T07:59:13.831Z,70.76
2018-11-29T08:01:43.574Z,71.43
2018-11-29T08:04:12.744Z,71.10
2018-11-29T08:06:44.235Z,71.46
2018-11-29T08:09:13.067Z,70.93
2018-11-29T08:11:41.903Z,71.54
2018-11-29T08:14:11.042Z,72.46
2018-11-29T08:16:40.233Z,72.64
2018-11-29T08:19:09.084Z,73.02
2018-11-29T08:21:39.857Z,72.07
2018-11-29T08:24:11.489Z,72.11
2018-11-29T08:26:42.121Z,71.16
2018-11-29T08:29:36.572Z,71.10
2018-11-29T08:32:11.249Z,71.30
2018-11-29T08:34:40.634Z,71.14
2018-11-29T08:37:11.297Z,70.73
2018-11-29T08:39:40.042Z,71.40
2018-11-29T08:42:09.425Z,72.31
2018-11-29T08:44:38.277Z,73.14
2018-11-29T08:47:25.143Z,73.78
2018-11-29T08:49:55.658Z,71.81
2018-11-29T08:52:24.405Z,71.95
2018-11-29T08:54:55.350Z,72.25
2018-11-29T08:57:24.271Z,71.98
2018-11-29T08:59:53.550Z,74.18
2018-11-29T09:02:22.495Z,71.79
2018-11-29T09:04:51.291Z,72.22
2018-11-29T09:07:20.070Z,71.65
2018-11-29T09:09:48.913Z,71.90
2018-11-29T09:12:19.266Z,71.06
2018-11-29T09:14:50.905Z,71.88
2018-11-29T09:17:19.901Z,71.64
2018-11-29T09:19:49.351Z,71.45
2018-11-29T09:22:19.758Z,71.01
2018-11-29T09:24:48.730Z,70.95
2018-11-29T09:27:18.258Z,71.19
2018-11-29T09:29:47.243Z,70.84
2018-11-29T09:32:17.495Z,70.89
2018-11-29T09:34:46.871Z,71.12
2018-11-29T09:37:15.860Z,72.04
2018-11-29T09:39:47.208Z,72.48
2018-11-29T09:42:16.193Z,72.33
2018-11-29T09:44:44.997Z,72.37
2018-11-29T09:47:14.038Z,72.25
2018-11-29T09:49:42.973Z,72.38
2018-11-29T09:52:11.703Z,72.00
2018-11-29T09:54:40.504Z,72.35
2018-11-29T09:57:09.829Z,72.73
2018-11-29T09:59:38.632Z,71.09
2018-11-29T10:02:07.460Z,71.05
2018-11-29T10:04:36.234Z,70.85
2018-11-29T10:07:05.249Z,69.86
2018-11-29T10:09:34.575Z,69.05
2018-11-29T10:12:04.332Z,69.05
2018-11-29T10:14:33.216Z,69.38
2018-11-29T10:17:02.102Z,69.05
2018-11-29T10:19:31.102Z,69.39
2018-11-29T10:21:59.945Z,68.77
2018-11-29T10:24:29.536Z,68.91
2018-11-29T10:26:58.459Z,68.75
2018-11-29T10:29:27.273Z,68.94
2018-11-29T10:31:56.435Z,68.15
2018-11-29T10:34:25.892Z,67.90
2018-11-29T10:36:54.725Z,68.00
2018-11-29T10:39:23.698Z,67.77
2018-11-29T10:41:54.140Z,67.54
2018-11-29T10:44:22.893Z,67.31
2018-11-29T10:46:51.719Z,67.44
2018-11-29T10:49:21.539Z,67.06
2018-11-29T10:51:50.396Z,66.96
2018-11-29T10:54:19.440Z,67.02
2018-11-29T10:56:48.243Z,66.90
2018-11-29T10:59:16.936Z,66.86
2018-11-29T11:01:49.955Z,66.76
2018-11-29T11:04:18.888Z,66.70
2018-11-29T11:06:47.810Z,65.99
2018-11-29T11:09:16.789Z,65.43
2018-11-29T11:11:46.516Z,64.65
2018-11-29T11:14:15.397Z,64.64
2018-11-29T11:16:44.278Z,65.41
2018-11-29T11:19:12.994Z,64.72
2018-11-29T11:21:42.173Z,65.25
2018-11-29T11:24:11.840Z,66.38
2018-11-29T11:26:41.242Z,66.65
2018-11-29T11:29:10.063Z,66.63
2018-11-29T11:31:38.916Z,66.80
2018-11-29T11:34:07.805Z,66.68
2018-11-29T11:36:36.879Z,65.22
2018-11-29T11:39:07.703Z,64.75
2018-11-29T11:41:36.667Z,63.41
2018-11-29T11:44:05.479Z,63.19
2018-11-29T11:46:35.104Z,63.22
2018-11-29T11:49:04.171Z,63.76
2018-11-29T11:51:32.924Z,63.32
2018-11-29T11:54:01.727Z,62.65
2018-11-29T11:56:30.559Z,62.49
2018-11-29T11:59:00.570Z,62.45
2018-11-29T12:01:29.634Z,62.13
2018-11-29T12:03:59.930Z,62.36
2018-11-29T12:06:27.563Z,62.05
2018-11-29T12:08:56.669Z,62.28
2018-11-29T12:11:25.839Z,61.87
2018-11-29T12:13:55.345Z,61.70
2018-11-29T12:16:24.127Z,61.97
2018-11-29T12:18:52.843Z,61.60
2018-11-29T12:21:21.640Z,61.65
2018-11-29T12:23:50.366Z,61.36
2018-11-29T12:26:19.458Z,61.71
2018-11-29T12:28:48.238Z,61.54
2018-11-29T12:31:17.027Z,61.81
2018-11-29T12:33:45.762Z,62.01
2018-11-29T12:36:14.526Z,62.30
2018-11-29T12:38:43.897Z,62.32
2018-11-29T12:41:12.646Z,62.38
2018-11-29T12:43:41.560Z,62.05
2018-11-29T12:46:10.397Z,62.69
2018-11-29T12:48:39.699Z,62.81
2018-11-29T12:51:10.450Z,62.74
2018-11-29T12:53:41.093Z,62.84
2018-11-29T12:56:11.636Z,62.59
2018-11-29T12:58:41.125Z,63.07
2018-11-29T13:01:10.194Z,63.59
2018-11-29T13:03:40.539Z,64.26
2018-11-29T13:06:09.332Z,64.88
2018-11-29T13:08:38.267Z,65.65
2018-11-29T13:11:10.705Z,65.41
2018-11-29T13:13:36.679Z,66.08
2018-11-29T13:16:05.980Z,65.38
2018-11-29T13:18:35.403Z,66.09
2018-11-29T13:21:05.055Z,66.08
2018-11-29T13:23:34.077Z,66.32
2018-11-29T13:26:02.859Z,66.36
2018-11-29T13:28:33.495Z,65.70
2018-11-29T13:31:02.913Z,66.31
2018-11-29T13:33:33.077Z,66.39
2018-11-29T13:36:01.682Z,67.16
2018-11-29T13:38:31.114Z,68.35
2018-11-29T13:41:00.514Z,68.35
2018-11-29T13:43:30.570Z,68.89
2018-11-29T13:46:00.153Z,69.86
2018-11-29T13:48:29.358Z,70.18
2018-11-29T13:50:58.307Z,70.69
2018-11-29T13:53:34.003Z,71.30
2018-11-29T13:56:02.901Z,72.03
2018-11-29T13:58:32.244Z,71.85
2018-11-29T14:01:01.150Z,72.54
2018-11-29T14:03:32.004Z,72.49
2018-11-29T14:06:01.045Z,73.47
2018-11-29T14:08:30.101Z,72.90
2018-11-29T14:10:59.170Z,71.50
2018-11-29T14:13:28.026Z,71.54
2018-11-29T14:15:57.310Z,72.33
2018-11-29T14:18:26.858Z,72.46
2018-11-29T14:20:55.711Z,72.30
2018-11-29T14:23:25.085Z,72.47
2018-11-29T14:25:54.804Z,73.06
2018-11-29T14:28:23.756Z,74.10
2018-11-29T14:30:52.636Z,74.29
2018-11-29T14:33:23.352Z,74.42
2018-11-29T14:35:52.381Z,75.13
2018-11-29T14:38:22.606Z,75.24
2018-11-29T14:40:51.622Z,76.17
2018-11-29T14:43:20.737Z,76.23
2018-11-29T14:45:49.799Z,76.17
2018-11-29T14:48:19.304Z,76.27
2018-11-29T14:50:48.510Z,77.06
2018-11-29T14:53:17.331Z,76.36
2018-11-29T14:55:48.842Z,77.43
2018-11-29T14:58:19.791Z,77.28
2018-11-29T15:00:47.867Z,77.66
2018-11-29T15:03:20.771Z,77.77
2018-11-29T15:05:51.473Z,76.82
2018-11-29T15:08:20.790Z,76.66
2018-11-29T15:10:50.121Z,76.13
2018-11-29T15:13:19.099Z,75.75
2018-11-29T15:15:49.004Z,75.07
2018-11-29T15:18:17.919Z,73.91
2018-11-29T15:20:48.615Z,73.56
2018-11-29T15:23:18.619Z,73.47
2018-11-29T15:25:47.423Z,73.15
2018-11-29T15:28:16.214Z,72.55
2018-11-29T15:30:44.951Z,72.59
2018-11-29T15:33:13.642Z,72.13
2018-11-29T15:35:42.407Z,71.66
2018-11-29T15:38:11.782Z,71.54
2018-11-29T15:40:40.668Z,69.85
2018-11-29T15:43:10.312Z,69.97
2018-11-29T15:45:39.258Z,69.70
2018-11-29T15:48:08.195Z,68.68
2018-11-29T15:50:36.987Z,67.94
2018-11-29T15:53:06.886Z,67.67
2018-11-29T15:55:36.241Z,71.43
2018-11-29T15:58:05.377Z,65.84
2018-11-29T16:00:34.419Z,65.32
2018-11-29T16:03:05.399Z,65.24
2018-11-29T16:05:34.254Z,64.87
2018-11-29T16:08:03.079Z,63.16
2018-11-29T16:10:32.769Z,63.07
2018-11-29T16:13:01.666Z,63.19
2018-11-29T16:15:30.535Z,61.98
2018-11-29T16:17:59.431Z,62.65
2018-11-29T16:20:29.735Z,61.49
2018-11-29T16:22:58.587Z,62.21
2018-11-29T16:25:27.459Z,61.68
2018-11-29T16:27:56.488Z,61.71
2018-11-29T16:30:31.765Z,61.15
2018-11-29T16:33:05.882Z,60.73
2018-11-29T16:35:34.713Z,61.30
2018-11-29T16:38:03.680Z,60.99
2018-11-29T16:40:32.603Z,61.06
2018-11-29T16:43:01.462Z,59.82
2018-11-29T16:45:30.349Z,59.62
2018-11-29T16:47:59.275Z,60.49
2018-11-29T16:50:28.108Z,59.56
2018-11-29T16:52:56.871Z,60.43
2018-11-29T16:55:25.974Z,60.25
2018-11-29T16:57:57.945Z,60.17
2018-11-29T17:00:26.800Z,59.68
2018-11-29T17:02:55.843Z,58.64
2018-11-29T17:05:24.683Z,58.35
2018-11-29T17:07:55.265Z,58.71
2018-11-29T17:10:24.111Z,58.22
2018-11-29T17:12:55.481Z,58.55
2018-11-29T17:15:24.512Z,58.01
2018-11-29T17:17:53.504Z,58.35
2018-11-29T17:20:22.420Z,58.01
2018-11-29T17:22:51.777Z,58.08
2018-11-29T17:25:20.602Z,57.54
2018-11-29T17:27:49.334Z,57.44
2018-11-29T17:30:25.100Z,57.43
2018-11-29T17:32:54.968Z,57.69
2018-11-29T17:35:24.904Z,57.96
2018-11-29T17:37:54.972Z,57.30
2018-11-29T17:40:24.149Z,57.79
2018-11-29T17:42:54.569Z,57.76
2018-11-29T17:45:26.270Z,57.50
2018-11-29T17:47:56.681Z,57.39
2018-11-29T17:50:28.829Z,57.00
2018-11-29T17:52:57.593Z,57.38
2018-11-29T17:55:26.386Z,56.43
2018-11-29T17:57:55.059Z,56.88
2018-11-29T18:00:29.012Z,56.74
2018-11-29T18:02:58.141Z,56.80
2018-11-29T18:05:26.951Z,56.93
2018-11-29T18:07:55.834Z,56.89
2018-11-29T18:10:26.826Z,56.57
2018-11-29T18:13:00.690Z,56.93
2018-11-29T18:15:31.758Z,57.05
2018-11-29T18:18:00.525Z,56.77
2018-11-29T18:20:29.412Z,56.84
2018-11-29T18:22:58.348Z,56.61
2018-11-29T18:25:27.260Z,56.61
2018-11-29T18:27:56.536Z,56.18
2018-11-29T18:30:25.611Z,56.50
2018-11-29T18:32:54.378Z,56.48
2018-11-29T18:35:24.411Z,56.33
2018-11-29T18:37:53.165Z,56.20
2018-11-29T18:40:22.473Z,56.04
2018-11-29T18:42:56.361Z,55.69
2018-11-29T18:45:25.197Z,55.90
2018-11-29T18:47:54.620Z,55.26
2018-11-29T18:50:25.285Z,55.13
2018-11-29T18:52:54.405Z,55.16
2018-11-29T18:55:25.082Z,68.19
2018-11-29T18:57:55.009Z,60.50
2018-11-29T19:00:26.887Z,59.74
2018-11-29T19:02:57.069Z,58.62
2018-11-29T19:05:25.154Z,60.06
2018-11-29T19:07:53.878Z,58.10
2018-11-29T19:10:23.002Z,58.14
2018-11-29T19:13:10.680Z,59.67
2018-11-29T19:15:39.456Z,59.44
2018-11-29T19:18:10.661Z,59.07
2018-11-29T19:20:38.118Z,59.05
2018-11-29T19:23:06.827Z,57.95
2018-11-29T19:25:35.862Z,57.83
2018-11-29T19:28:05.062Z,58.98
2018-11-29T19:30:34.073Z,59.28
2018-11-29T19:33:09.274Z,58.83
2018-11-29T19:35:38.034Z,58.34
2018-11-29T19:38:06.975Z,58.25
2018-11-29T19:40:35.880Z,57.41
2018-11-29T19:43:05.194Z,58.02
2018-11-29T19:45:34.025Z,57.88
2018-11-29T19:48:02.884Z,58.84
2018-11-29T19:50:31.746Z,57.14
2018-11-29T19:53:01.124Z,58.29
2018-11-29T19:55:32.156Z,57.27
2018-11-29T19:58:00.969Z,55.41
2018-11-29T20:00:30.024Z,56.71
2018-11-29T20:02:59.067Z,56.72
2018-11-29T20:05:27.879Z,56.74
2018-11-29T20:07:57.157Z,55.88
2018-11-29T20:10:26.972Z,56.04
2018-11-29T20:13:02.282Z,56.97
2018-11-29T20:15:31.236Z,59.39
2018-11-29T20:18:00.740Z,59.11
2018-11-29T20:20:30.378Z,60.77
2018-11-29T20:22:59.182Z,63.52
2018-11-29T20:25:28.149Z,63.39
2018-11-29T20:27:57.655Z,66.09
2018-11-29T20:30:26.622Z,66.98
2018-11-29T20:32:55.934Z,69.44
2018-11-29T20:35:24.823Z,69.76
2018-11-29T20:37:56.292Z,70.34
2018-11-29T20:40:28.750Z,69.90
2018-11-29T20:42:58.605Z,69.65
2018-11-29T20:45:33.750Z,67.38
2018-11-29T20:48:06.486Z,67.08
2018-11-29T20:50:35.771Z,66.57
2018-11-29T20:53:04.120Z,66.45
2018-11-29T20:55:32.953Z,66.83
2018-11-29T20:58:01.723Z,66.79
2018-11-29T21:00:30.484Z,66.42
2018-11-29T21:02:59.374Z,68.67
2018-11-29T21:05:28.222Z,68.30
2018-11-29T21:07:59.715Z,69.03
2018-11-29T21:10:28.585Z,69.78
2018-11-29T21:13:01.636Z,69.12
2018-11-29T21:15:30.746Z,70.03
2018-11-29T21:17:59.680Z,68.57
2018-11-29T21:20:28.497Z,68.74
2018-11-29T21:22:57.339Z,67.83
2018-11-29T21:25:26.385Z,68.18
2018-11-29T21:27:55.172Z,67.49
2018-11-29T21:30:24.003Z,68.05
2018-11-29T21:32:52.865Z,69.15
2018-11-29T21:35:22.974Z,67.89
2018-11-29T21:37:52.807Z,66.39
2018-11-29T21:40:24.691Z,67.88
2018-11-29T21:42:54.654Z,67.73
2018-11-29T21:45:23.932Z,66.81
2018-11-29T21:47:52.764Z,67.86
2018-11-29T21:50:21.586Z,66.46
2018-11-29T21:52:50.396Z,66.56
2018-11-29T21:55:20.002Z,66.30
2018-11-29T21:57:48.815Z,66.60
2018-11-29T22:00:20.706Z,67.41
2018-11-29T22:02:51.043Z,66.84
2018-11-29T22:05:21.386Z,67.38
2018-11-29T22:07:50.309Z,67.05
2018-11-29T22:10:19.123Z,65.94
2018-11-29T22:12:48.722Z,65.83
2018-11-29T22:15:17.706Z,66.57
2018-11-29T22:18:23.802Z,68.04
2018-11-29T22:20:56.138Z,67.81
2018-11-29T22:23:26.226Z,68.24
2018-11-29T22:25:56.559Z,68.29
2018-11-29T22:28:25.535Z,68.12
2018-11-29T22:30:55.061Z,67.89
2018-11-29T22:33:23.888Z,69.42
2018-11-29T22:35:54.694Z,68.75
2018-11-29T22:38:24.262Z,69.66
2018-11-29T22:40:53.220Z,69.91
2018-11-29T22:43:25.037Z,69.63
2018-11-29T22:45:53.903Z,69.86
2018-11-29T22:48:22.786Z,69.78
2018-11-29T22:50:51.617Z,72.46
2018-11-29T22:53:20.370Z,70.65
2018-11-29T22:55:49.298Z,66.73
2018-11-29T22:58:21.604Z,66.96
2018-11-29T23:00:53.044Z,66.82
2018-11-29T23:03:22.214Z,65.78
2018-11-29T23:05:51.698Z,65.83
2018-11-29T23:08:20.521Z,66.03
2018-11-29T23:10:49.994Z,65.09
2018-11-29T23:13:18.793Z,64.87
2018-11-29T23:15:47.665Z,65.14
2018-11-29T23:18:16.471Z,65.73
2018-11-29T23:20:45.350Z,65.66
2018-11-29T23:23:14.150Z,65.32
2018-11-29T23:25:43.046Z,65.69
2018-11-29T23:28:11.822Z,64.63
2018-11-29T23:30:40.623Z,63.78
2018-11-29T23:33:09.508Z,63.95
2018-11-29T23:35:38.404Z,65.07
2018-11-29T23:38:07.807Z,64.13
2018-11-29T23:40:37.017Z,63.90
2018-11-29T23:43:05.873Z,63.50
2018-11-29T23:45:35.407Z,62.75
2018-11-29T23:48:04.384Z,61.97
2018-11-29T23:50:37.179Z,62.48
2018-11-29T23:53:06.211Z,61.98
2018-11-29T23:55:35.148Z,62.91
2018-11-29T23:58:04.126Z,65.16
